Aérodrome :







RETROUVEZ-NOUS SUR...

 
LOGIN :

S'inscrire | Disclaimer

   EN    FR    IT 

 









Légende :    VFR   VFR Marginal   IFR   IFR Intensif   IFR Très Intensif
Visi : 
Plafond : 
>= 8 km
>= 3000ft
5 à 8 km
1000 à 3000 ft
1500m à 5 km
500 à 1000 ft
800 à 1500m
200 à 500 ft
< 800m
< 200 ft
Symboles :   Orages  Brouillard  Fortes neiges  Fortes précipitations  Vent > 20 kt






- Altitude de l'aérodrome : 160 ft
- Code IATA : YYG


CYYG - Charlottetown

DERNIER METAR :
  • 230200Z 23009KT 15SM FEW160 SCT240 M02/M06 A2995 RMK AC2CI2 SLP148

METARs EXPIRÉS :
  • 230100Z 23007KT 15SM SCT160 SCT240 M02/M07 A2995 RMK AC3CI1 SLP147
  • 230000Z 24011KT 15SM BKN240 M01/M07 A2994 RMK CI5 SLP143
  • 222300Z 23008KT 15SM BKN180 M01/M09 A2993 RMK CI7 SLP140

TAF TAF CYYG
Valide du 23 à 00h jusqu'au 23 à 12h UTC


222338Z 2300/2312 23008KT P6SM FEW240 RMK NXT FCST BY 230600Z



MET'MAP, la Météo Aéronautique d'un coup d'oeil ! - Copyright ORBIFLY Décembre 2007 - Disclaimer

ORBIFLY MET'MAP TEAM :

Programmation & Développement : Alexandra Zaïnal
Sur une idée originale de : Baudouin d'Aumeries
Assistance à la programmation : Marc-Olivier Méhu
Soutien technique & logistique : Manuel Goepfert

Contact : metmap@orbifly.com




SOURCES & CREDITS :

   NOAA